sensor_id;sensor_type;location;lat;lon;timestamp;P1;durP1;ratioP1;P2;durP2;ratioP2
14599;SDS011;7386;45.586;12.854;2023-02-28T00:01:24;24.07;;;8.60;;
14599;SDS011;7386;45.586;12.854;2023-02-28T00:03:53;23.10;;;9.13;;
14599;SDS011;7386;45.586;12.854;2023-02-28T00:06:22;19.63;;;8.50;;
14599;SDS011;7386;45.586;12.854;2023-02-28T00:08:50;18.00;;;9.20;;
14599;SDS011;7386;45.586;12.854;2023-02-28T00:11:20;14.50;;;8.43;;
14599;SDS011;7386;45.586;12.854;2023-02-28T00:13:49;24.03;;;9.43;;
14599;SDS011;7386;45.586;12.854;2023-02-28T00:16:18;22.00;;;9.80;;
14599;SDS011;7386;45.586;12.854;2023-02-28T00:18:47;22.37;;;9.40;;
14599;SDS011;7386;45.586;12.854;2023-02-28T00:21:16;17.77;;;9.00;;
14599;SDS011;7386;45.586;12.854;2023-02-28T00:23:44;21.57;;;9.53;;
14599;SDS011;7386;45.586;12.854;2023-02-28T00:26:13;20.60;;;9.47;;
14599;SDS011;7386;45.586;12.854;2023-02-28T00:28:43;23.30;;;9.97;;
14599;SDS011;7386;45.586;12.854;2023-02-28T00:31:11;16.70;;;9.33;;
14599;SDS011;7386;45.586;12.854;2023-02-28T00:33:40;20.20;;;9.40;;
14599;SDS011;7386;45.586;12.854;2023-02-28T00:36:09;22.33;;;8.97;;
14599;SDS011;7386;45.586;12.854;2023-02-28T00:38:38;19.10;;;8.43;;
14599;SDS011;7386;45.586;12.854;2023-02-28T00:41:07;23.77;;;9.17;;
14599;SDS011;7386;45.586;12.854;2023-02-28T00:43:36;14.80;;;8.83;;
14599;SDS011;7386;45.586;12.854;2023-02-28T00:46:06;20.37;;;9.13;;
14599;SDS011;7386;45.586;12.854;2023-02-28T00:48:35;18.80;;;9.53;;
14599;SDS011;7386;45.586;12.854;2023-02-28T00:51:04;25.17;;;8.97;;
14599;SDS011;7386;45.586;12.854;2023-02-28T00:53:32;14.20;;;9.50;;
14599;SDS011;7386;45.586;12.854;2023-02-28T00:56:01;16.37;;;8.87;;
14599;SDS011;7386;45.586;12.854;2023-02-28T00:58:29;15.00;;;9.13;;
14599;SDS011;7386;45.586;12.854;2023-02-28T01:00:58;16.63;;;9.10;;
14599;SDS011;7386;45.586;12.854;2023-02-28T01:03:28;16.60;;;9.23;;
14599;SDS011;7386;45.586;12.854;2023-02-28T01:05:56;13.73;;;9.00;;
14599;SDS011;7386;45.586;12.854;2023-02-28T01:08:24;19.73;;;9.60;;
14599;SDS011;7386;45.586;12.854;2023-02-28T01:10:53;13.07;;;8.07;;
14599;SDS011;7386;45.586;12.854;2023-02-28T01:13:21;13.20;;;8.40;;
14599;SDS011;7386;45.586;12.854;2023-02-28T01:15:52;15.33;;;9.00;;
14599;SDS011;7386;45.586;12.854;2023-02-28T01:18:21;13.23;;;8.73;;
14599;SDS011;7386;45.586;12.854;2023-02-28T01:20:52;13.60;;;8.37;;
14599;SDS011;7386;45.586;12.854;2023-02-28T01:23:21;17.03;;;8.60;;
14599;SDS011;7386;45.586;12.854;2023-02-28T01:25:50;18.33;;;9.43;;
14599;SDS011;7386;45.586;12.854;2023-02-28T01:28:18;18.40;;;9.90;;
14599;SDS011;7386;45.586;12.854;2023-02-28T01:30:47;14.10;;;8.60;;
14599;SDS011;7386;45.586;12.854;2023-02-28T01:33:16;17.17;;;9.37;;
14599;SDS011;7386;45.586;12.854;2023-02-28T01:35:45;19.00;;;9.83;;
14599;SDS011;7386;45.586;12.854;2023-02-28T01:38:15;24.13;;;9.50;;
14599;SDS011;7386;45.586;12.854;2023-02-28T01:40:49;27.53;;;9.63;;
14599;SDS011;7386;45.586;12.854;2023-02-28T01:43:19;23.17;;;9.17;;
14599;SDS011;7386;45.586;12.854;2023-02-28T01:45:48;18.93;;;8.67;;
14599;SDS011;7386;45.586;12.854;2023-02-28T01:48:17;20.87;;;9.47;;
14599;SDS011;7386;45.586;12.854;2023-02-28T01:50:46;15.03;;;9.03;;
14599;SDS011;7386;45.586;12.854;2023-02-28T01:53:18;22.13;;;9.10;;
14599;SDS011;7386;45.586;12.854;2023-02-28T01:55:48;17.73;;;8.93;;
14599;SDS011;7386;45.586;12.854;2023-02-28T01:58:18;19.10;;;9.10;;
14599;SDS011;7386;45.586;12.854;2023-02-28T02:00:46;16.90;;;9.10;;
14599;SDS011;7386;45.586;12.854;2023-02-28T02:03:16;20.70;;;9.33;;
14599;SDS011;7386;45.586;12.854;2023-02-28T02:05:45;18.43;;;10.13;;
14599;SDS011;7386;45.586;12.854;2023-02-28T02:08:15;17.63;;;8.80;;
14599;SDS011;7386;45.586;12.854;2023-02-28T02:10:46;14.70;;;8.87;;
14599;SDS011;7386;45.586;12.854;2023-02-28T02:13:24;17.13;;;8.93;;
14599;SDS011;7386;45.586;12.854;2023-02-28T02:15:57;13.83;;;9.23;;
14599;SDS011;7386;45.586;12.854;2023-02-28T02:18:30;15.73;;;9.03;;
14599;SDS011;7386;45.586;12.854;2023-02-28T02:21:15;17.10;;;9.57;;
14599;SDS011;7386;45.586;12.854;2023-02-28T02:29:30;16.33;;;9.47;;
14599;SDS011;7386;45.586;12.854;2023-02-28T02:32:15;15.00;;;9.00;;
14599;SDS011;7386;45.586;12.854;2023-02-28T02:34:51;12.53;;;8.73;;
14599;SDS011;7386;45.586;12.854;2023-02-28T02:37:23;13.53;;;9.03;;
14599;SDS011;7386;45.586;12.854;2023-02-28T02:39:59;14.07;;;9.47;;
14599;SDS011;7386;45.586;12.854;2023-02-28T02:42:31;15.47;;;9.90;;
14599;SDS011;7386;45.586;12.854;2023-02-28T02:45:00;14.53;;;9.33;;
14599;SDS011;7386;45.586;12.854;2023-02-28T02:47:30;17.70;;;10.07;;
14599;SDS011;7386;45.586;12.854;2023-02-28T02:50:02;18.17;;;9.53;;
14599;SDS011;7386;45.586;12.854;2023-02-28T02:52:32;17.10;;;10.10;;
14599;SDS011;7386;45.586;12.854;2023-02-28T02:55:02;18.43;;;9.87;;
14599;SDS011;7386;45.586;12.854;2023-02-28T02:57:33;14.80;;;9.73;;
14599;SDS011;7386;45.586;12.854;2023-02-28T03:00:04;15.63;;;9.20;;
14599;SDS011;7386;45.586;12.854;2023-02-28T03:02:35;15.47;;;9.20;;
14599;SDS011;7386;45.586;12.854;2023-02-28T03:05:06;19.40;;;10.23;;
14599;SDS011;7386;45.586;12.854;2023-02-28T03:07:36;16.33;;;9.47;;
14599;SDS011;7386;45.586;12.854;2023-02-28T03:12:49;15.27;;;9.73;;
14599;SDS011;7386;45.586;12.854;2023-02-28T03:15:20;15.63;;;10.00;;
14599;SDS011;7386;45.586;12.854;2023-02-28T03:17:57;12.67;;;9.30;;
14599;SDS011;7386;45.586;12.854;2023-02-28T03:20:35;13.87;;;10.03;;
14599;SDS011;7386;45.586;12.854;2023-02-28T03:23:07;15.50;;;9.63;;
14599;SDS011;7386;45.586;12.854;2023-02-28T03:25:41;19.73;;;10.17;;
14599;SDS011;7386;45.586;12.854;2023-02-28T03:28:15;15.37;;;9.67;;
14599;SDS011;7386;45.586;12.854;2023-02-28T03:30:48;14.93;;;10.03;;
14599;SDS011;7386;45.586;12.854;2023-02-28T03:33:21;14.97;;;9.77;;
14599;SDS011;7386;45.586;12.854;2023-02-28T03:35:52;15.10;;;10.03;;
14599;SDS011;7386;45.586;12.854;2023-02-28T03:38:24;15.63;;;10.10;;
14599;SDS011;7386;45.586;12.854;2023-02-28T03:40:55;16.33;;;10.73;;
14599;SDS011;7386;45.586;12.854;2023-02-28T03:43:26;13.23;;;9.37;;
14599;SDS011;7386;45.586;12.854;2023-02-28T03:45:56;16.03;;;8.90;;
14599;SDS011;7386;45.586;12.854;2023-02-28T03:48:28;13.90;;;9.90;;
14599;SDS011;7386;45.586;12.854;2023-02-28T03:50:59;15.87;;;10.33;;
14599;SDS011;7386;45.586;12.854;2023-02-28T03:53:30;12.73;;;9.63;;
14599;SDS011;7386;45.586;12.854;2023-02-28T03:56:01;14.13;;;9.30;;
14599;SDS011;7386;45.586;12.854;2023-02-28T03:58:34;15.23;;;9.33;;
14599;SDS011;7386;45.586;12.854;2023-02-28T04:01:04;14.17;;;9.97;;
14599;SDS011;7386;45.586;12.854;2023-02-28T04:03:35;14.60;;;10.70;;
14599;SDS011;7386;45.586;12.854;2023-02-28T04:06:06;15.73;;;10.53;;
14599;SDS011;7386;45.586;12.854;2023-02-28T04:08:35;15.17;;;9.77;;
14599;SDS011;7386;45.586;12.854;2023-02-28T04:11:04;13.93;;;9.47;;
14599;SDS011;7386;45.586;12.854;2023-02-28T04:13:33;14.10;;;9.93;;
14599;SDS011;7386;45.586;12.854;2023-02-28T04:16:02;14.30;;;10.07;;
14599;SDS011;7386;45.586;12.854;2023-02-28T04:18:49;15.37;;;10.57;;
14599;SDS011;7386;45.586;12.854;2023-02-28T04:21:19;15.80;;;10.23;;
14599;SDS011;7386;45.586;12.854;2023-02-28T04:23:48;14.63;;;9.63;;
14599;SDS011;7386;45.586;12.854;2023-02-28T04:26:17;14.07;;;10.20;;
14599;SDS011;7386;45.586;12.854;2023-02-28T04:28:46;13.70;;;8.87;;
14599;SDS011;7386;45.586;12.854;2023-02-28T04:31:14;13.43;;;9.07;;
14599;SDS011;7386;45.586;12.854;2023-02-28T04:33:43;16.37;;;10.13;;
14599;SDS011;7386;45.586;12.854;2023-02-28T04:36:11;15.03;;;9.90;;
14599;SDS011;7386;45.586;12.854;2023-02-28T04:38:42;13.53;;;9.50;;
14599;SDS011;7386;45.586;12.854;2023-02-28T04:41:10;15.47;;;10.00;;
14599;SDS011;7386;45.586;12.854;2023-02-28T04:43:39;14.10;;;9.60;;
14599;SDS011;7386;45.586;12.854;2023-02-28T04:46:07;14.97;;;9.40;;
14599;SDS011;7386;45.586;12.854;2023-02-28T04:48:38;15.87;;;10.27;;
14599;SDS011;7386;45.586;12.854;2023-02-28T04:51:07;14.10;;;9.83;;
14599;SDS011;7386;45.586;12.854;2023-02-28T04:53:36;15.70;;;10.40;;
14599;SDS011;7386;45.586;12.854;2023-02-28T04:56:07;14.63;;;9.70;;
14599;SDS011;7386;45.586;12.854;2023-02-28T04:58:36;14.27;;;10.50;;
14599;SDS011;7386;45.586;12.854;2023-02-28T05:01:05;13.00;;;9.27;;
14599;SDS011;7386;45.586;12.854;2023-02-28T05:03:38;13.70;;;8.53;;
14599;SDS011;7386;45.586;12.854;2023-02-28T05:06:07;14.80;;;9.23;;
14599;SDS011;7386;45.586;12.854;2023-02-28T05:08:36;14.57;;;9.73;;
14599;SDS011;7386;45.586;12.854;2023-02-28T05:11:08;15.97;;;10.43;;
14599;SDS011;7386;45.586;12.854;2023-02-28T05:13:40;14.00;;;9.27;;
14599;SDS011;7386;45.586;12.854;2023-02-28T05:16:08;12.43;;;8.73;;
14599;SDS011;7386;45.586;12.854;2023-02-28T05:18:37;13.63;;;9.17;;
14599;SDS011;7386;45.586;12.854;2023-02-28T05:21:05;16.20;;;9.07;;
14599;SDS011;7386;45.586;12.854;2023-02-28T05:23:34;16.57;;;10.27;;
14599;SDS011;7386;45.586;12.854;2023-02-28T05:26:03;15.10;;;10.10;;
14599;SDS011;7386;45.586;12.854;2023-02-28T05:28:32;12.27;;;9.27;;
14599;SDS011;7386;45.586;12.854;2023-02-28T05:31:01;14.10;;;9.57;;
14599;SDS011;7386;45.586;12.854;2023-02-28T05:33:29;13.00;;;9.33;;
14599;SDS011;7386;45.586;12.854;2023-02-28T05:35:58;14.57;;;9.97;;
14599;SDS011;7386;45.586;12.854;2023-02-28T05:38:26;15.27;;;9.10;;
14599;SDS011;7386;45.586;12.854;2023-02-28T05:40:55;15.73;;;10.40;;
14599;SDS011;7386;45.586;12.854;2023-02-28T05:43:23;13.33;;;9.17;;
14599;SDS011;7386;45.586;12.854;2023-02-28T05:45:53;15.37;;;9.80;;
14599;SDS011;7386;45.586;12.854;2023-02-28T05:48:21;14.43;;;10.23;;
14599;SDS011;7386;45.586;12.854;2023-02-28T05:50:50;15.93;;;9.77;;
14599;SDS011;7386;45.586;12.854;2023-02-28T05:53:18;14.53;;;9.00;;
14599;SDS011;7386;45.586;12.854;2023-02-28T05:55:47;12.87;;;8.93;;
14599;SDS011;7386;45.586;12.854;2023-02-28T05:58:15;13.13;;;9.47;;
14599;SDS011;7386;45.586;12.854;2023-02-28T06:00:44;13.37;;;9.83;;
14599;SDS011;7386;45.586;12.854;2023-02-28T06:03:14;12.03;;;9.07;;
14599;SDS011;7386;45.586;12.854;2023-02-28T06:05:42;14.20;;;9.23;;
14599;SDS011;7386;45.586;12.854;2023-02-28T06:08:11;14.13;;;9.33;;
14599;SDS011;7386;45.586;12.854;2023-02-28T06:10:39;13.23;;;9.17;;
14599;SDS011;7386;45.586;12.854;2023-02-28T06:13:08;12.53;;;8.80;;
14599;SDS011;7386;45.586;12.854;2023-02-28T06:15:37;15.50;;;10.07;;
14599;SDS011;7386;45.586;12.854;2023-02-28T06:18:06;13.87;;;9.93;;
14599;SDS011;7386;45.586;12.854;2023-02-28T06:20:36;13.93;;;9.97;;
14599;SDS011;7386;45.586;12.854;2023-02-28T06:23:05;14.30;;;9.10;;
14599;SDS011;7386;45.586;12.854;2023-02-28T06:25:33;16.10;;;9.80;;
14599;SDS011;7386;45.586;12.854;2023-02-28T06:28:02;13.47;;;9.10;;
14599;SDS011;7386;45.586;12.854;2023-02-28T06:30:30;14.00;;;9.17;;
14599;SDS011;7386;45.586;12.854;2023-02-28T06:33:00;12.97;;;8.97;;
14599;SDS011;7386;45.586;12.854;2023-02-28T06:35:28;12.53;;;9.57;;
14599;SDS011;7386;45.586;12.854;2023-02-28T06:37:58;14.13;;;9.53;;
14599;SDS011;7386;45.586;12.854;2023-02-28T06:40:26;13.47;;;9.27;;
14599;SDS011;7386;45.586;12.854;2023-02-28T06:42:58;13.37;;;9.77;;
14599;SDS011;7386;45.586;12.854;2023-02-28T06:45:26;13.30;;;9.40;;
14599;SDS011;7386;45.586;12.854;2023-02-28T06:47:54;12.43;;;8.07;;
14599;SDS011;7386;45.586;12.854;2023-02-28T06:50:24;15.73;;;9.47;;
14599;SDS011;7386;45.586;12.854;2023-02-28T06:52:54;14.80;;;10.43;;
14599;SDS011;7386;45.586;12.854;2023-02-28T06:55:24;13.20;;;9.17;;
14599;SDS011;7386;45.586;12.854;2023-02-28T06:57:56;12.13;;;9.40;;
14599;SDS011;7386;45.586;12.854;2023-02-28T07:00:24;13.87;;;9.70;;
14599;SDS011;7386;45.586;12.854;2023-02-28T07:02:53;14.53;;;10.83;;
14599;SDS011;7386;45.586;12.854;2023-02-28T07:05:22;17.70;;;10.50;;
14599;SDS011;7386;45.586;12.854;2023-02-28T07:07:50;12.47;;;9.43;;
14599;SDS011;7386;45.586;12.854;2023-02-28T07:10:19;15.43;;;11.07;;
14599;SDS011;7386;45.586;12.854;2023-02-28T07:12:48;16.53;;;10.57;;
14599;SDS011;7386;45.586;12.854;2023-02-28T07:15:17;12.03;;;8.83;;
14599;SDS011;7386;45.586;12.854;2023-02-28T07:17:46;16.33;;;10.97;;
14599;SDS011;7386;45.586;12.854;2023-02-28T07:20:14;14.70;;;10.33;;
14599;SDS011;7386;45.586;12.854;2023-02-28T07:22:43;18.40;;;11.87;;
14599;SDS011;7386;45.586;12.854;2023-02-28T07:25:11;16.53;;;10.57;;
14599;SDS011;7386;45.586;12.854;2023-02-28T07:27:40;17.00;;;10.73;;
14599;SDS011;7386;45.586;12.854;2023-02-28T07:30:10;15.40;;;10.13;;
14599;SDS011;7386;45.586;12.854;2023-02-28T07:32:39;15.37;;;11.23;;
14599;SDS011;7386;45.586;12.854;2023-02-28T07:35:10;16.27;;;10.70;;
14599;SDS011;7386;45.586;12.854;2023-02-28T07:37:39;16.50;;;10.70;;
14599;SDS011;7386;45.586;12.854;2023-02-28T07:40:08;15.93;;;10.50;;
14599;SDS011;7386;45.586;12.854;2023-02-28T07:42:39;16.30;;;11.10;;
14599;SDS011;7386;45.586;12.854;2023-02-28T07:45:08;15.00;;;11.53;;
14599;SDS011;7386;45.586;12.854;2023-02-28T07:47:39;16.30;;;10.73;;
14599;SDS011;7386;45.586;12.854;2023-02-28T07:50:09;17.23;;;10.97;;
14599;SDS011;7386;45.586;12.854;2023-02-28T07:52:37;17.90;;;11.27;;
14599;SDS011;7386;45.586;12.854;2023-02-28T07:55:06;15.00;;;10.90;;
14599;SDS011;7386;45.586;12.854;2023-02-28T07:57:35;18.60;;;10.27;;
14599;SDS011;7386;45.586;12.854;2023-02-28T08:00:04;17.40;;;11.97;;
14599;SDS011;7386;45.586;12.854;2023-02-28T08:02:33;16.13;;;10.87;;
14599;SDS011;7386;45.586;12.854;2023-02-28T08:05:04;14.63;;;10.07;;
14599;SDS011;7386;45.586;12.854;2023-02-28T08:07:32;15.03;;;10.00;;
14599;SDS011;7386;45.586;12.854;2023-02-28T08:10:01;21.77;;;10.40;;
14599;SDS011;7386;45.586;12.854;2023-02-28T08:12:31;29.13;;;10.30;;
14599;SDS011;7386;45.586;12.854;2023-02-28T08:15:00;31.93;;;9.97;;
14599;SDS011;7386;45.586;12.854;2023-02-28T08:17:28;34.63;;;10.37;;
14599;SDS011;7386;45.586;12.854;2023-02-28T08:20:00;30.67;;;10.97;;
14599;SDS011;7386;45.586;12.854;2023-02-28T08:22:31;46.80;;;11.70;;
14599;SDS011;7386;45.586;12.854;2023-02-28T08:25:00;35.77;;;10.57;;
14599;SDS011;7386;45.586;12.854;2023-02-28T08:27:28;29.40;;;9.67;;
14599;SDS011;7386;45.586;12.854;2023-02-28T08:29:57;29.43;;;9.53;;
14599;SDS011;7386;45.586;12.854;2023-02-28T08:32:26;20.83;;;9.40;;
14599;SDS011;7386;45.586;12.854;2023-02-28T08:34:56;23.77;;;9.93;;
14599;SDS011;7386;45.586;12.854;2023-02-28T08:37:24;40.93;;;11.17;;
14599;SDS011;7386;45.586;12.854;2023-02-28T08:39:54;22.90;;;8.60;;
14599;SDS011;7386;45.586;12.854;2023-02-28T08:42:22;31.07;;;10.30;;
14599;SDS011;7386;45.586;12.854;2023-02-28T08:44:51;21.77;;;8.93;;
14599;SDS011;7386;45.586;12.854;2023-02-28T08:47:19;28.87;;;9.87;;
14599;SDS011;7386;45.586;12.854;2023-02-28T08:49:47;38.97;;;11.57;;
14599;SDS011;7386;45.586;12.854;2023-02-28T08:52:16;31.57;;;9.80;;
14599;SDS011;7386;45.586;12.854;2023-02-28T08:54:44;22.47;;;8.97;;
14599;SDS011;7386;45.586;12.854;2023-02-28T08:57:14;27.30;;;9.63;;
14599;SDS011;7386;45.586;12.854;2023-02-28T08:59:43;30.83;;;10.30;;
14599;SDS011;7386;45.586;12.854;2023-02-28T09:02:12;27.40;;;8.93;;
14599;SDS011;7386;45.586;12.854;2023-02-28T09:04:40;29.43;;;8.40;;
14599;SDS011;7386;45.586;12.854;2023-02-28T09:07:11;34.37;;;9.40;;
14599;SDS011;7386;45.586;12.854;2023-02-28T09:09:40;46.70;;;10.50;;
14599;SDS011;7386;45.586;12.854;2023-02-28T09:12:21;52.73;;;10.67;;
14599;SDS011;7386;45.586;12.854;2023-02-28T09:14:50;39.20;;;11.10;;
14599;SDS011;7386;45.586;12.854;2023-02-28T09:17:18;24.17;;;8.87;;
14599;SDS011;7386;45.586;12.854;2023-02-28T09:19:47;43.80;;;9.77;;
14599;SDS011;7386;45.586;12.854;2023-02-28T09:22:16;24.33;;;7.90;;
14599;SDS011;7386;45.586;12.854;2023-02-28T09:24:44;29.13;;;6.73;;
14599;SDS011;7386;45.586;12.854;2023-02-28T09:27:13;27.17;;;9.13;;
14599;SDS011;7386;45.586;12.854;2023-02-28T09:29:43;41.57;;;9.50;;
14599;SDS011;7386;45.586;12.854;2023-02-28T09:32:11;64.00;;;11.40;;
14599;SDS011;7386;45.586;12.854;2023-02-28T09:34:40;36.53;;;9.43;;
14599;SDS011;7386;45.586;12.854;2023-02-28T09:37:08;39.97;;;9.70;;
14599;SDS011;7386;45.586;12.854;2023-02-28T09:39:37;34.17;;;9.07;;
14599;SDS011;7386;45.586;12.854;2023-02-28T09:42:05;27.13;;;8.23;;
14599;SDS011;7386;45.586;12.854;2023-02-28T09:44:35;33.87;;;9.07;;
14599;SDS011;7386;45.586;12.854;2023-02-28T09:47:07;25.07;;;7.43;;
14599;SDS011;7386;45.586;12.854;2023-02-28T09:49:38;34.03;;;8.10;;
14599;SDS011;7386;45.586;12.854;2023-02-28T09:52:09;31.00;;;8.00;;
14599;SDS011;7386;45.586;12.854;2023-02-28T09:54:38;46.13;;;10.17;;
14599;SDS011;7386;45.586;12.854;2023-02-28T09:57:08;39.47;;;9.80;;
14599;SDS011;7386;45.586;12.854;2023-02-28T09:59:42;32.63;;;9.13;;
14599;SDS011;7386;45.586;12.854;2023-02-28T10:02:19;16.03;;;6.73;;
14599;SDS011;7386;45.586;12.854;2023-02-28T10:04:50;31.13;;;7.43;;
14599;SDS011;7386;45.586;12.854;2023-02-28T10:07:25;24.50;;;7.33;;
14599;SDS011;7386;45.586;12.854;2023-02-28T10:09:59;20.30;;;7.30;;
14599;SDS011;7386;45.586;12.854;2023-02-28T10:12:29;20.30;;;7.10;;
14599;SDS011;7386;45.586;12.854;2023-02-28T10:14:58;23.60;;;7.37;;
14599;SDS011;7386;45.586;12.854;2023-02-28T10:17:30;31.20;;;8.53;;
14599;SDS011;7386;45.586;12.854;2023-02-28T10:20:20;17.17;;;7.93;;
14599;SDS011;7386;45.586;12.854;2023-02-28T10:22:57;21.07;;;7.63;;
14599;SDS011;7386;45.586;12.854;2023-02-28T10:25:27;29.80;;;6.57;;
14599;SDS011;7386;45.586;12.854;2023-02-28T10:27:57;17.57;;;7.17;;
14599;SDS011;7386;45.586;12.854;2023-02-28T10:30:27;41.77;;;8.03;;
14599;SDS011;7386;45.586;12.854;2023-02-28T10:32:57;20.67;;;7.27;;
14599;SDS011;7386;45.586;12.854;2023-02-28T10:35:26;15.90;;;6.37;;
14599;SDS011;7386;45.586;12.854;2023-02-28T10:37:55;26.77;;;7.60;;
14599;SDS011;7386;45.586;12.854;2023-02-28T10:40:26;32.13;;;8.50;;
14599;SDS011;7386;45.586;12.854;2023-02-28T10:42:55;27.70;;;8.10;;
14599;SDS011;7386;45.586;12.854;2023-02-28T10:45:24;19.00;;;7.40;;
14599;SDS011;7386;45.586;12.854;2023-02-28T10:47:53;19.13;;;7.47;;
14599;SDS011;7386;45.586;12.854;2023-02-28T10:50:27;25.03;;;7.20;;
14599;SDS011;7386;45.586;12.854;2023-02-28T10:53:00;30.27;;;8.27;;
14599;SDS011;7386;45.586;12.854;2023-02-28T10:55:33;31.60;;;8.00;;
14599;SDS011;7386;45.586;12.854;2023-02-28T10:58:01;15.63;;;6.17;;
14599;SDS011;7386;45.586;12.854;2023-02-28T11:00:32;15.70;;;5.90;;
14599;SDS011;7386;45.586;12.854;2023-02-28T11:03:00;19.17;;;6.67;;
14599;SDS011;7386;45.586;12.854;2023-02-28T11:05:31;17.47;;;6.53;;
14599;SDS011;7386;45.586;12.854;2023-02-28T11:08:02;21.67;;;7.37;;
14599;SDS011;7386;45.586;12.854;2023-02-28T11:10:32;25.87;;;7.33;;
14599;SDS011;7386;45.586;12.854;2023-02-28T11:13:01;22.33;;;6.80;;
14599;SDS011;7386;45.586;12.854;2023-02-28T11:15:30;16.13;;;6.77;;
14599;SDS011;7386;45.586;12.854;2023-02-28T11:18:00;20.40;;;7.10;;
14599;SDS011;7386;45.586;12.854;2023-02-28T11:20:32;16.03;;;6.10;;
14599;SDS011;7386;45.586;12.854;2023-02-28T11:23:01;20.03;;;6.40;;
14599;SDS011;7386;45.586;12.854;2023-02-28T11:25:32;12.67;;;6.20;;
14599;SDS011;7386;45.586;12.854;2023-02-28T11:28:02;17.60;;;7.20;;
14599;SDS011;7386;45.586;12.854;2023-02-28T11:30:34;14.77;;;6.03;;
14599;SDS011;7386;45.586;12.854;2023-02-28T11:33:19;13.43;;;6.33;;
14599;SDS011;7386;45.586;12.854;2023-02-28T11:35:51;15.73;;;7.20;;
14599;SDS011;7386;45.586;12.854;2023-02-28T11:38:20;15.40;;;5.40;;
14599;SDS011;7386;45.586;12.854;2023-02-28T11:40:50;17.83;;;6.20;;
14599;SDS011;7386;45.586;12.854;2023-02-28T11:43:25;13.03;;;5.87;;
14599;SDS011;7386;45.586;12.854;2023-02-28T11:45:59;21.80;;;6.83;;
14599;SDS011;7386;45.586;12.854;2023-02-28T11:48:32;15.73;;;6.33;;
14599;SDS011;7386;45.586;12.854;2023-02-28T11:51:09;14.30;;;6.20;;
14599;SDS011;7386;45.586;12.854;2023-02-28T11:53:44;16.63;;;7.00;;
14599;SDS011;7386;45.586;12.854;2023-02-28T11:56:17;11.23;;;5.77;;
14599;SDS011;7386;45.586;12.854;2023-02-28T11:58:50;13.83;;;6.87;;
14599;SDS011;7386;45.586;12.854;2023-02-28T12:04:11;14.77;;;7.57;;
14599;SDS011;7386;45.586;12.854;2023-02-28T12:06:44;14.57;;;7.00;;
14599;SDS011;7386;45.586;12.854;2023-02-28T12:09:28;17.70;;;7.23;;
14599;SDS011;7386;45.586;12.854;2023-02-28T12:12:03;13.10;;;6.97;;
14599;SDS011;7386;45.586;12.854;2023-02-28T12:14:44;15.17;;;6.77;;
14599;SDS011;7386;45.586;12.854;2023-02-28T12:17:17;14.57;;;6.87;;
14599;SDS011;7386;45.586;12.854;2023-02-28T12:19:51;18.13;;;7.17;;
14599;SDS011;7386;45.586;12.854;2023-02-28T12:22:28;10.00;;;6.27;;
14599;SDS011;7386;45.586;12.854;2023-02-28T12:25:01;14.60;;;7.70;;
14599;SDS011;7386;45.586;12.854;2023-02-28T12:27:34;15.60;;;6.97;;
14599;SDS011;7386;45.586;12.854;2023-02-28T12:30:05;9.67;;;6.00;;
14599;SDS011;7386;45.586;12.854;2023-02-28T12:32:35;20.43;;;7.87;;
14599;SDS011;7386;45.586;12.854;2023-02-28T12:35:06;11.47;;;7.50;;
14599;SDS011;7386;45.586;12.854;2023-02-28T12:37:41;16.03;;;8.17;;
14599;SDS011;7386;45.586;12.854;2023-02-28T12:40:13;16.63;;;7.63;;
14599;SDS011;7386;45.586;12.854;2023-02-28T12:42:44;10.40;;;6.07;;
14599;SDS011;7386;45.586;12.854;2023-02-28T12:45:15;13.27;;;6.77;;
14599;SDS011;7386;45.586;12.854;2023-02-28T12:47:45;12.27;;;7.27;;
14599;SDS011;7386;45.586;12.854;2023-02-28T12:50:16;13.70;;;7.27;;
14599;SDS011;7386;45.586;12.854;2023-02-28T12:52:50;20.70;;;9.10;;
14599;SDS011;7386;45.586;12.854;2023-02-28T12:55:21;15.93;;;8.00;;
14599;SDS011;7386;45.586;12.854;2023-02-28T12:57:53;13.33;;;7.47;;
14599;SDS011;7386;45.586;12.854;2023-02-28T13:00:28;18.07;;;7.93;;
14599;SDS011;7386;45.586;12.854;2023-02-28T13:03:12;15.73;;;8.23;;
14599;SDS011;7386;45.586;12.854;2023-02-28T13:08:42;12.67;;;8.57;;
14599;SDS011;7386;45.586;12.854;2023-02-28T13:11:23;9.50;;;6.30;;
14599;SDS011;7386;45.586;12.854;2023-02-28T13:13:57;15.63;;;7.40;;
14599;SDS011;7386;45.586;12.854;2023-02-28T13:16:25;14.60;;;7.53;;
14599;SDS011;7386;45.586;12.854;2023-02-28T13:18:57;17.47;;;8.20;;
14599;SDS011;7386;45.586;12.854;2023-02-28T13:21:41;15.93;;;8.80;;
14599;SDS011;7386;45.586;12.854;2023-02-28T13:24:12;15.73;;;8.87;;
14599;SDS011;7386;45.586;12.854;2023-02-28T13:27:11;14.93;;;8.93;;
14599;SDS011;7386;45.586;12.854;2023-02-28T13:29:40;17.17;;;8.83;;
14599;SDS011;7386;45.586;12.854;2023-02-28T13:32:28;12.23;;;6.80;;
14599;SDS011;7386;45.586;12.854;2023-02-28T13:37:47;15.30;;;9.07;;
14599;SDS011;7386;45.586;12.854;2023-02-28T13:40:32;13.90;;;8.90;;
14599;SDS011;7386;45.586;12.854;2023-02-28T13:43:06;14.30;;;8.33;;
14599;SDS011;7386;45.586;12.854;2023-02-28T13:45:35;16.10;;;8.57;;
14599;SDS011;7386;45.586;12.854;2023-02-28T13:48:15;16.23;;;8.50;;
14599;SDS011;7386;45.586;12.854;2023-02-28T13:50:45;16.50;;;8.87;;
14599;SDS011;7386;45.586;12.854;2023-02-28T13:56:03;12.50;;;8.00;;
14599;SDS011;7386;45.586;12.854;2023-02-28T13:58:38;16.27;;;8.37;;
14599;SDS011;7386;45.586;12.854;2023-02-28T14:01:15;16.30;;;9.13;;
14599;SDS011;7386;45.586;12.854;2023-02-28T14:03:49;12.80;;;7.37;;
14599;SDS011;7386;45.586;12.854;2023-02-28T14:06:24;18.70;;;8.00;;
14599;SDS011;7386;45.586;12.854;2023-02-28T14:08:55;15.47;;;9.03;;
14599;SDS011;7386;45.586;12.854;2023-02-28T14:11:27;14.60;;;8.87;;
14599;SDS011;7386;45.586;12.854;2023-02-28T14:13:57;16.27;;;8.27;;
14599;SDS011;7386;45.586;12.854;2023-02-28T14:16:26;15.00;;;8.43;;
14599;SDS011;7386;45.586;12.854;2023-02-28T14:18:57;18.17;;;9.23;;
14599;SDS011;7386;45.586;12.854;2023-02-28T14:21:27;18.07;;;9.37;;
14599;SDS011;7386;45.586;12.854;2023-02-28T14:24:02;16.70;;;8.73;;
14599;SDS011;7386;45.586;12.854;2023-02-28T14:26:43;18.10;;;9.17;;
14599;SDS011;7386;45.586;12.854;2023-02-28T14:29:19;15.40;;;9.20;;
14599;SDS011;7386;45.586;12.854;2023-02-28T14:31:54;15.93;;;8.83;;
14599;SDS011;7386;45.586;12.854;2023-02-28T14:34:31;14.33;;;8.23;;
14599;SDS011;7386;45.586;12.854;2023-02-28T14:37:03;15.40;;;8.80;;
14599;SDS011;7386;45.586;12.854;2023-02-28T14:39:34;20.27;;;9.53;;
14599;SDS011;7386;45.586;12.854;2023-02-28T14:44:53;16.13;;;8.13;;
14599;SDS011;7386;45.586;12.854;2023-02-28T14:47:22;16.80;;;8.83;;
14599;SDS011;7386;45.586;12.854;2023-02-28T14:49:52;19.10;;;9.90;;
14599;SDS011;7386;45.586;12.854;2023-02-28T14:52:22;15.43;;;8.60;;
14599;SDS011;7386;45.586;12.854;2023-02-28T14:54:54;15.80;;;8.93;;
14599;SDS011;7386;45.586;12.854;2023-02-28T14:57:23;22.70;;;8.93;;
14599;SDS011;7386;45.586;12.854;2023-02-28T15:00:00;19.03;;;10.40;;
14599;SDS011;7386;45.586;12.854;2023-02-28T15:02:31;18.47;;;8.70;;
14599;SDS011;7386;45.586;12.854;2023-02-28T15:05:22;17.47;;;8.70;;
14599;SDS011;7386;45.586;12.854;2023-02-28T15:08:00;17.03;;;10.03;;
14599;SDS011;7386;45.586;12.854;2023-02-28T15:10:29;17.47;;;8.80;;
14599;SDS011;7386;45.586;12.854;2023-02-28T15:12:58;18.20;;;8.57;;
14599;SDS011;7386;45.586;12.854;2023-02-28T15:15:30;28.97;;;10.63;;